Terminal Aerodrome Forecast
Issued by NWS

Home | Current Version | Previous Version | Text Only | Print | Product List | Glossary On
Versions: 1 2 3 4 5 6 7 8 9 10 11 12 13 14 15 16 17 18 19 20 21 22 23 24 25 26 27 28 29 30 31 32 33 34 35 36 37 38 39 40
813
FTUS41 KBOX 252106 AAA
TAFBED
TAF AMD
KBED 252106Z 2521/2618 25014G22KT P6SM BKN250
     FM260000 23010KT P6SM SCT200
     FM260500 23007KT P6SM FEW250
     FM261200 25006KT P6SM FEW250
     FM261600 27005KT P6SM SCT250=

USA.gov is the U.S. government's official web portal to all federal, state and local government web resources and services.